Aérodrome :
LOGIN :

S'inscrire | Disclaimer

   EN    FR    IT 

 










Légende :    VFR   VFR Marginal   IFR   IFR Intensif   IFR Très Intensif
Visi : 
Plafond : 
>= 8 km
>= 3000ft
5 à 8 km
1000 à 3000 ft
1500m à 5 km
500 à 1000 ft
800 à 1500m
200 à 500 ft
< 800m
< 200 ft
Symboles :   Orages  Brouillard  Fortes neiges  Fortes précipitations  Vent > 20 kt
SIGMETs :   Divers  Orages  Givrage  Turbulence  Onde Orograph.  Cendres Volcan.







- Altitude de l'aérodrome : 433 ft
- Voir les cartes d'approche


LFOC - Chateaudun

DERNIER METAR :
  • 222130Z AUTO 09007KT 9999 -RA FEW040 SCT050 OVC066 06/05 Q1008

METARs EXPIRÉS :
  • 222100Z AUTO 07007KT 9999 SCT041/// SCT052/// OVC066/// ///TCU 06/05 Q1008
  • 222030Z AUTO 00000KT 9999 FEW030/// BKN050/// OVC082/// ///CB 06/05 Q1008
  • 222000Z AUTO 27005KT 9999 -RA OVC030/// ///TCU 06/05 Q1009
  • 221930Z AUTO 26011KT 5000 RA BR FEW007/// BKN025/// OVC030/// ///CB 06/05 Q1008
  • 221900Z AUTO VRB02KT 8000 RA FEW031/// BKN037/// BKN046/// ///TCU 07/06 Q1008

TAF TAF LFOC
Valide du 22 à 15h jusqu'au 23 à 15h UTC


221400Z 2215/2315 18010KT 9999 FEW020 BKN040
TEMPO 2215/2221 18015G25KT 4000 -SHRA FEW020 BKN040 SCT050TCU
BECMG 2221/2223 07005KT
BECMG 2307/2309 4000 RA
BECMG 2313/2315 9999 NSW
Pas de NOTAMs connus pour ce terrain.



MET'MAP, la Météo Aéronautique d'un coup d'oeil ! - Copyright ORBIFLY Décembre 2007 - Disclaimer

ORBIFLY MET'MAP TEAM :

Programmation & Développement : Alexandra Zaïnal
Conception & Développement : Baudouin d'Aumeries
Co-Programmation & Développement : Marc-Olivier Méhu
Soutien technique & logistique : Manuel Goepfert

Contact : metmap@orbifly.com




SOURCES & CREDITS :

   NOAA